sensor_id;sensor_type;location;lat;lon;timestamp;P1;P2;P0
49686;PMS5003;36064;38.180;-122.272;2023-04-25T00:00:00;4.8;4.6;
49686;PMS5003;36064;38.180;-122.272;2023-04-25T00:05:00;4.6;3.6;
49686;PMS5003;36064;38.180;-122.272;2023-04-25T00:10:00;6.4;5.0;
49686;PMS5003;36064;38.180;-122.272;2023-04-25T00:15:00;5.6;3.8;
49686;PMS5003;36064;38.180;-122.272;2023-04-25T00:20:00;3.4;2.6;
49686;PMS5003;36064;38.180;-122.272;2023-04-25T00:25:00;5.8;5.2;
49686;PMS5003;36064;38.180;-122.272;2023-04-25T00:30:00;5.2;4.4;
49686;PMS5003;36064;38.180;-122.272;2023-04-25T00:35:01;5.0;4.0;
49686;PMS5003;36064;38.180;-122.272;2023-04-25T00:40:00;4.2;3.0;
49686;PMS5003;36064;38.180;-122.272;2023-04-25T00:45:00;6.4;4.4;
49686;PMS5003;36064;38.180;-122.272;2023-04-25T00:50:00;5.4;4.0;
49686;PMS5003;36064;38.180;-122.272;2023-04-25T00:55:00;5.0;4.8;
49686;PMS5003;36064;38.180;-122.272;2023-04-25T01:00:01;5.0;4.0;
49686;PMS5003;36064;38.180;-122.272;2023-04-25T01:05:00;7.8;7.4;
49686;PMS5003;36064;38.180;-122.272;2023-04-25T01:10:01;5.4;6.0;
49686;PMS5003;36064;38.180;-122.272;2023-04-25T01:15:00;6.4;4.4;
49686;PMS5003;36064;38.180;-122.272;2023-04-25T01:20:01;8.4;6.8;
49686;PMS5003;36064;38.180;-122.272;2023-04-25T01:25:00;5.4;6.6;
49686;PMS5003;36064;38.180;-122.272;2023-04-25T01:30:00;8.0;5.6;
49686;PMS5003;36064;38.180;-122.272;2023-04-25T01:35:00;7.0;6.0;
49686;PMS5003;36064;38.180;-122.272;2023-04-25T01:40:00;4.8;4.6;
49686;PMS5003;36064;38.180;-122.272;2023-04-25T01:45:00;6.2;4.2;
49686;PMS5003;36064;38.180;-122.272;2023-04-25T01:50:00;7.2;5.2;
49686;PMS5003;36064;38.180;-122.272;2023-04-25T01:55:01;5.0;4.6;
49686;PMS5003;36064;38.180;-122.272;2023-04-25T02:00:01;6.4;5.4;
49686;PMS5003;36064;38.180;-122.272;2023-04-25T02:05:00;6.2;5.0;
49686;PMS5003;36064;38.180;-122.272;2023-04-25T02:10:00;6.2;4.8;
49686;PMS5003;36064;38.180;-122.272;2023-04-25T02:15:00;5.2;4.4;
49686;PMS5003;36064;38.180;-122.272;2023-04-25T02:20:00;5.2;4.2;
49686;PMS5003;36064;38.180;-122.272;2023-04-25T02:25:00;5.2;4.8;
49686;PMS5003;36064;38.180;-122.272;2023-04-25T02:30:00;5.8;5.0;
49686;PMS5003;36064;38.180;-122.272;2023-04-25T02:35:00;6.0;3.4;
49686;PMS5003;36064;38.180;-122.272;2023-04-25T02:40:01;6.6;4.4;
49686;PMS5003;36064;38.180;-122.272;2023-04-25T02:45:00;6.0;5.4;
49686;PMS5003;36064;38.180;-122.272;2023-04-25T02:50:00;5.0;5.4;
49686;PMS5003;36064;38.180;-122.272;2023-04-25T02:55:00;4.8;3.6;
49686;PMS5003;36064;38.180;-122.272;2023-04-25T03:00:00;5.0;4.2;
49686;PMS5003;36064;38.180;-122.272;2023-04-25T03:05:00;4.8;3.2;
49686;PMS5003;36064;38.180;-122.272;2023-04-25T03:10:00;5.4;4.4;
49686;PMS5003;36064;38.180;-122.272;2023-04-25T03:15:00;5.2;3.0;
49686;PMS5003;36064;38.180;-122.272;2023-04-25T03:20:00;6.2;5.8;
49686;PMS5003;36064;38.180;-122.272;2023-04-25T03:25:00;4.0;3.4;
49686;PMS5003;36064;38.180;-122.272;2023-04-25T03:30:00;4.6;4.2;
49686;PMS5003;36064;38.180;-122.272;2023-04-25T03:35:00;5.2;3.8;
49686;PMS5003;36064;38.180;-122.272;2023-04-25T03:40:00;3.6;3.4;
49686;PMS5003;36064;38.180;-122.272;2023-04-25T03:45:01;6.2;6.2;
49686;PMS5003;36064;38.180;-122.272;2023-04-25T03:50:00;6.2;3.8;
49686;PMS5003;36064;38.180;-122.272;2023-04-25T03:55:00;4.8;5.0;
49686;PMS5003;36064;38.180;-122.272;2023-04-25T04:00:01;5.6;4.2;
49686;PMS5003;36064;38.180;-122.272;2023-04-25T04:05:00;5.6;3.2;
49686;PMS5003;36064;38.180;-122.272;2023-04-25T04:10:00;3.8;3.2;
49686;PMS5003;36064;38.180;-122.272;2023-04-25T04:15:01;4.6;4.2;
49686;PMS5003;36064;38.180;-122.272;2023-04-25T04:20:00;6.4;4.8;
49686;PMS5003;36064;38.180;-122.272;2023-04-25T04:25:00;5.2;3.6;
49686;PMS5003;36064;38.180;-122.272;2023-04-25T04:30:00;5.4;5.0;
49686;PMS5003;36064;38.180;-122.272;2023-04-25T04:35:00;5.0;3.8;
49686;PMS5003;36064;38.180;-122.272;2023-04-25T04:40:00;5.4;5.4;
49686;PMS5003;36064;38.180;-122.272;2023-04-25T04:45:00;4.2;3.4;
49686;PMS5003;36064;38.180;-122.272;2023-04-25T04:50:00;8.8;8.0;
49686;PMS5003;36064;38.180;-122.272;2023-04-25T04:55:03;8.2;6.4;
49686;PMS5003;36064;38.180;-122.272;2023-04-25T05:00:00;8.8;5.8;
49686;PMS5003;36064;38.180;-122.272;2023-04-25T05:05:00;8.6;6.2;
49686;PMS5003;36064;38.180;-122.272;2023-04-25T05:10:00;8.6;4.2;
49686;PMS5003;36064;38.180;-122.272;2023-04-25T05:15:00;5.4;5.4;
49686;PMS5003;36064;38.180;-122.272;2023-04-25T05:20:00;7.0;5.4;
49686;PMS5003;36064;38.180;-122.272;2023-04-25T05:25:00;7.2;4.8;
49686;PMS5003;36064;38.180;-122.272;2023-04-25T05:30:00;8.6;6.8;
49686;PMS5003;36064;38.180;-122.272;2023-04-25T05:35:00;7.4;5.8;
49686;PMS5003;36064;38.180;-122.272;2023-04-25T05:40:00;5.6;5.2;
49686;PMS5003;36064;38.180;-122.272;2023-04-25T05:45:00;7.2;6.6;
49686;PMS5003;36064;38.180;-122.272;2023-04-25T05:50:00;5.6;6.6;
49686;PMS5003;36064;38.180;-122.272;2023-04-25T05:55:00;7.0;5.4;
49686;PMS5003;36064;38.180;-122.272;2023-04-25T06:00:00;6.4;5.2;
49686;PMS5003;36064;38.180;-122.272;2023-04-25T06:05:00;8.8;7.6;
49686;PMS5003;36064;38.180;-122.272;2023-04-25T06:10:00;15.8;12.6;
49686;PMS5003;36064;38.180;-122.272;2023-04-25T06:15:00;8.0;6.4;
49686;PMS5003;36064;38.180;-122.272;2023-04-25T06:20:00;9.0;5.8;
49686;PMS5003;36064;38.180;-122.272;2023-04-25T06:25:00;8.0;6.2;
49686;PMS5003;36064;38.180;-122.272;2023-04-25T06:30:00;8.8;7.0;
49686;PMS5003;36064;38.180;-122.272;2023-04-25T06:35:00;6.0;6.0;
49686;PMS5003;36064;38.180;-122.272;2023-04-25T06:40:00;8.8;6.4;
49686;PMS5003;36064;38.180;-122.272;2023-04-25T06:45:01;7.4;6.4;
49686;PMS5003;36064;38.180;-122.272;2023-04-25T06:50:00;7.6;5.4;
49686;PMS5003;36064;38.180;-122.272;2023-04-25T06:55:00;9.6;7.4;
49686;PMS5003;36064;38.180;-122.272;2023-04-25T07:00:00;9.8;8.4;
49686;PMS5003;36064;38.180;-122.272;2023-04-25T07:05:00;10.4;7.4;
49686;PMS5003;36064;38.180;-122.272;2023-04-25T07:10:00;12.4;9.0;
49686;PMS5003;36064;38.180;-122.272;2023-04-25T07:15:00;9.0;8.8;
49686;PMS5003;36064;38.180;-122.272;2023-04-25T07:20:00;7.8;7.4;
49686;PMS5003;36064;38.180;-122.272;2023-04-25T07:25:00;10.6;8.4;
49686;PMS5003;36064;38.180;-122.272;2023-04-25T07:30:00;10.2;7.4;
49686;PMS5003;36064;38.180;-122.272;2023-04-25T07:35:00;8.2;6.2;
49686;PMS5003;36064;38.180;-122.272;2023-04-25T07:40:00;11.8;8.6;
49686;PMS5003;36064;38.180;-122.272;2023-04-25T07:45:00;9.0;7.2;
49686;PMS5003;36064;38.180;-122.272;2023-04-25T07:50:00;9.2;7.8;
49686;PMS5003;36064;38.180;-122.272;2023-04-25T07:55:00;7.2;6.4;
49686;PMS5003;36064;38.180;-122.272;2023-04-25T08:00:00;7.4;7.4;
49686;PMS5003;36064;38.180;-122.272;2023-04-25T08:05:00;10.4;9.4;
49686;PMS5003;36064;38.180;-122.272;2023-04-25T08:10:00;8.8;6.8;
49686;PMS5003;36064;38.180;-122.272;2023-04-25T08:15:00;8.2;6.2;
49686;PMS5003;36064;38.180;-122.272;2023-04-25T08:20:00;6.2;6.0;
49686;PMS5003;36064;38.180;-122.272;2023-04-25T08:25:00;7.2;7.0;
49686;PMS5003;36064;38.180;-122.272;2023-04-25T08:30:00;6.4;5.4;
49686;PMS5003;36064;38.180;-122.272;2023-04-25T08:35:00;8.0;7.0;
49686;PMS5003;36064;38.180;-122.272;2023-04-25T08:40:00;6.6;5.8;
49686;PMS5003;36064;38.180;-122.272;2023-04-25T08:45:01;9.2;7.6;
49686;PMS5003;36064;38.180;-122.272;2023-04-25T08:50:01;10.2;7.6;
49686;PMS5003;36064;38.180;-122.272;2023-04-25T08:55:00;17.2;10.8;
49686;PMS5003;36064;38.180;-122.272;2023-04-25T09:00:00;8.0;5.0;
49686;PMS5003;36064;38.180;-122.272;2023-04-25T09:05:00;8.2;8.2;
49686;PMS5003;36064;38.180;-122.272;2023-04-25T09:10:00;9.8;7.4;
49686;PMS5003;36064;38.180;-122.272;2023-04-25T09:15:03;8.4;6.4;
49686;PMS5003;36064;38.180;-122.272;2023-04-25T09:20:08;8.6;7.0;
49686;PMS5003;36064;38.180;-122.272;2023-04-25T09:25:02;8.8;6.4;
49686;PMS5003;36064;38.180;-122.272;2023-04-25T09:30:01;6.6;6.2;
49686;PMS5003;36064;38.180;-122.272;2023-04-25T09:35:00;5.4;5.0;
49686;PMS5003;36064;38.180;-122.272;2023-04-25T09:40:03;9.2;8.8;
49686;PMS5003;36064;38.180;-122.272;2023-04-25T09:45:01;10.6;6.0;
49686;PMS5003;36064;38.180;-122.272;2023-04-25T09:50:00;9.8;8.0;
49686;PMS5003;36064;38.180;-122.272;2023-04-25T09:55:00;8.2;5.8;
49686;PMS5003;36064;38.180;-122.272;2023-04-25T10:00:01;7.4;6.4;
49686;PMS5003;36064;38.180;-122.272;2023-04-25T10:05:00;8.0;7.4;
49686;PMS5003;36064;38.180;-122.272;2023-04-25T10:10:01;9.0;7.6;
49686;PMS5003;36064;38.180;-122.272;2023-04-25T10:15:00;10.2;6.8;
49686;PMS5003;36064;38.180;-122.272;2023-04-25T10:20:00;10.2;7.4;
49686;PMS5003;36064;38.180;-122.272;2023-04-25T10:25:00;8.4;6.8;
49686;PMS5003;36064;38.180;-122.272;2023-04-25T10:30:01;13.0;10.0;
49686;PMS5003;36064;38.180;-122.272;2023-04-25T10:35:10;8.4;7.6;
49686;PMS5003;36064;38.180;-122.272;2023-04-25T10:40:03;8.4;7.2;
49686;PMS5003;36064;38.180;-122.272;2023-04-25T10:45:01;12.2;10.2;
49686;PMS5003;36064;38.180;-122.272;2023-04-25T10:50:04;8.8;7.4;
49686;PMS5003;36064;38.180;-122.272;2023-04-25T10:55:02;8.2;7.0;
49686;PMS5003;36064;38.180;-122.272;2023-04-25T11:00:01;8.2;6.6;
49686;PMS5003;36064;38.180;-122.272;2023-04-25T11:05:00;8.2;7.0;
49686;PMS5003;36064;38.180;-122.272;2023-04-25T11:10:01;5.2;5.0;
49686;PMS5003;36064;38.180;-122.272;2023-04-25T11:15:01;9.0;7.8;
49686;PMS5003;36064;38.180;-122.272;2023-04-25T11:20:00;8.6;7.8;
49686;PMS5003;36064;38.180;-122.272;2023-04-25T11:25:04;7.4;5.8;
49686;PMS5003;36064;38.180;-122.272;2023-04-25T11:30:09;11.2;8.4;
49686;PMS5003;36064;38.180;-122.272;2023-04-25T11:35:00;9.2;8.8;
49686;PMS5003;36064;38.180;-122.272;2023-04-25T11:40:00;10.6;8.8;
49686;PMS5003;36064;38.180;-122.272;2023-04-25T11:45:00;10.4;7.8;
49686;PMS5003;36064;38.180;-122.272;2023-04-25T11:50:00;9.8;7.4;
49686;PMS5003;36064;38.180;-122.272;2023-04-25T11:55:00;8.4;7.6;
49686;PMS5003;36064;38.180;-122.272;2023-04-25T12:00:10;7.4;6.6;
49686;PMS5003;36064;38.180;-122.272;2023-04-25T12:05:00;7.6;7.4;
49686;PMS5003;36064;38.180;-122.272;2023-04-25T12:10:04;9.6;9.2;
49686;PMS5003;36064;38.180;-122.272;2023-04-25T12:15:08;8.8;7.2;
49686;PMS5003;36064;38.180;-122.272;2023-04-25T12:20:00;8.6;7.6;
49686;PMS5003;36064;38.180;-122.272;2023-04-25T12:25:00;6.4;6.0;
49686;PMS5003;36064;38.180;-122.272;2023-04-25T12:30:00;10.0;8.2;
49686;PMS5003;36064;38.180;-122.272;2023-04-25T12:35:00;7.0;7.0;
49686;PMS5003;36064;38.180;-122.272;2023-04-25T12:40:00;7.2;5.2;
49686;PMS5003;36064;38.180;-122.272;2023-04-25T12:45:00;9.0;5.4;
49686;PMS5003;36064;38.180;-122.272;2023-04-25T12:50:00;9.6;7.2;
49686;PMS5003;36064;38.180;-122.272;2023-04-25T12:55:01;8.6;6.4;
49686;PMS5003;36064;38.180;-122.272;2023-04-25T13:00:00;10.4;9.6;
49686;PMS5003;36064;38.180;-122.272;2023-04-25T13:05:00;7.8;6.0;
49686;PMS5003;36064;38.180;-122.272;2023-04-25T13:10:00;8.8;6.8;
49686;PMS5003;36064;38.180;-122.272;2023-04-25T13:15:00;6.6;5.2;
49686;PMS5003;36064;38.180;-122.272;2023-04-25T13:20:00;9.4;6.2;
49686;PMS5003;36064;38.180;-122.272;2023-04-25T13:25:00;13.4;10.2;
49686;PMS5003;36064;38.180;-122.272;2023-04-25T13:30:00;14.6;8.4;
49686;PMS5003;36064;38.180;-122.272;2023-04-25T13:35:00;9.8;6.8;
49686;PMS5003;36064;38.180;-122.272;2023-04-25T13:40:01;8.8;7.6;
49686;PMS5003;36064;38.180;-122.272;2023-04-25T13:45:01;10.4;9.6;
49686;PMS5003;36064;38.180;-122.272;2023-04-25T13:50:00;10.4;9.8;
49686;PMS5003;36064;38.180;-122.272;2023-04-25T13:55:00;7.6;6.4;
49686;PMS5003;36064;38.180;-122.272;2023-04-25T14:00:01;5.4;4.6;
49686;PMS5003;36064;38.180;-122.272;2023-04-25T14:05:00;7.0;6.8;
49686;PMS5003;36064;38.180;-122.272;2023-04-25T14:10:00;10.2;9.8;
49686;PMS5003;36064;38.180;-122.272;2023-04-25T14:15:00;12.8;9.8;
49686;PMS5003;36064;38.180;-122.272;2023-04-25T14:20:00;8.4;7.0;
49686;PMS5003;36064;38.180;-122.272;2023-04-25T14:25:00;9.4;6.6;
49686;PMS5003;36064;38.180;-122.272;2023-04-25T14:30:00;9.4;6.6;
49686;PMS5003;36064;38.180;-122.272;2023-04-25T14:35:00;8.2;7.2;
49686;PMS5003;36064;38.180;-122.272;2023-04-25T14:40:00;11.2;8.8;
49686;PMS5003;36064;38.180;-122.272;2023-04-25T14:45:00;11.4;9.8;
49686;PMS5003;36064;38.180;-122.272;2023-04-25T14:50:00;9.0;8.2;
49686;PMS5003;36064;38.180;-122.272;2023-04-25T14:55:00;13.2;10.6;
49686;PMS5003;36064;38.180;-122.272;2023-04-25T15:00:00;10.2;9.8;
49686;PMS5003;36064;38.180;-122.272;2023-04-25T15:05:00;8.8;6.4;
49686;PMS5003;36064;38.180;-122.272;2023-04-25T15:10:00;9.6;8.4;
49686;PMS5003;36064;38.180;-122.272;2023-04-25T15:15:00;11.8;9.2;
49686;PMS5003;36064;38.180;-122.272;2023-04-25T15:20:00;10.8;8.4;
49686;PMS5003;36064;38.180;-122.272;2023-04-25T15:25:00;9.4;8.4;
49686;PMS5003;36064;38.180;-122.272;2023-04-25T15:30:00;10.2;8.4;
49686;PMS5003;36064;38.180;-122.272;2023-04-25T15:35:01;10.2;8.6;
49686;PMS5003;36064;38.180;-122.272;2023-04-25T15:40:01;10.8;9.4;
49686;PMS5003;36064;38.180;-122.272;2023-04-25T15:45:00;10.8;7.8;
49686;PMS5003;36064;38.180;-122.272;2023-04-25T15:50:00;10.6;7.8;
49686;PMS5003;36064;38.180;-122.272;2023-04-25T15:55:00;10.2;7.6;
49686;PMS5003;36064;38.180;-122.272;2023-04-25T16:00:00;11.0;8.8;
49686;PMS5003;36064;38.180;-122.272;2023-04-25T16:05:00;11.4;9.2;
49686;PMS5003;36064;38.180;-122.272;2023-04-25T16:10:00;9.6;7.4;
49686;PMS5003;36064;38.180;-122.272;2023-04-25T16:15:00;15.2;13.0;
49686;PMS5003;36064;38.180;-122.272;2023-04-25T16:20:00;9.0;8.0;
49686;PMS5003;36064;38.180;-122.272;2023-04-25T16:25:00;10.0;7.4;
49686;PMS5003;36064;38.180;-122.272;2023-04-25T16:30:01;11.6;9.0;
49686;PMS5003;36064;38.180;-122.272;2023-04-25T16:35:00;9.0;7.4;
49686;PMS5003;36064;38.180;-122.272;2023-04-25T16:40:00;11.4;8.0;
49686;PMS5003;36064;38.180;-122.272;2023-04-25T16:45:00;11.8;10.6;
49686;PMS5003;36064;38.180;-122.272;2023-04-25T16:50:00;13.4;11.2;
49686;PMS5003;36064;38.180;-122.272;2023-04-25T16:55:00;6.6;4.8;
49686;PMS5003;36064;38.180;-122.272;2023-04-25T17:00:00;8.2;6.0;
49686;PMS5003;36064;38.180;-122.272;2023-04-25T17:05:00;8.4;7.4;
49686;PMS5003;36064;38.180;-122.272;2023-04-25T17:10:00;8.4;6.0;
49686;PMS5003;36064;38.180;-122.272;2023-04-25T17:15:00;6.4;6.8;
49686;PMS5003;36064;38.180;-122.272;2023-04-25T17:20:00;8.0;6.2;
49686;PMS5003;36064;38.180;-122.272;2023-04-25T17:25:00;8.6;7.0;
49686;PMS5003;36064;38.180;-122.272;2023-04-25T17:30:00;6.0;5.4;
49686;PMS5003;36064;38.180;-122.272;2023-04-25T17:35:00;6.8;5.6;
49686;PMS5003;36064;38.180;-122.272;2023-04-25T17:40:00;6.8;4.6;
49686;PMS5003;36064;38.180;-122.272;2023-04-25T17:45:01;6.4;5.0;
49686;PMS5003;36064;38.180;-122.272;2023-04-25T17:50:00;6.0;5.8;
49686;PMS5003;36064;38.180;-122.272;2023-04-25T17:55:00;12.8;7.2;
49686;PMS5003;36064;38.180;-122.272;2023-04-25T18:00:01;7.2;6.8;
49686;PMS5003;36064;38.180;-122.272;2023-04-25T18:05:00;7.61;6.41;
49686;PMS5003;36064;38.180;-122.272;2023-04-25T18:10:00;13.2;9.6;
49686;PMS5003;36064;38.180;-122.272;2023-04-25T18:15:00;5.4;5.4;
49686;PMS5003;36064;38.180;-122.272;2023-04-25T18:20:00;7.6;5.6;
49686;PMS5003;36064;38.180;-122.272;2023-04-25T18:25:00;6.6;8.2;
49686;PMS5003;36064;38.180;-122.272;2023-04-25T18:30:00;6.2;3.8;
49686;PMS5003;36064;38.180;-122.272;2023-04-25T18:35:00;9.2;6.6;
49686;PMS5003;36064;38.180;-122.272;2023-04-25T18:40:00;6.8;5.0;
49686;PMS5003;36064;38.180;-122.272;2023-04-25T18:45:00;7.6;4.8;
49686;PMS5003;36064;38.180;-122.272;2023-04-25T18:50:00;7.2;6.0;
49686;PMS5003;36064;38.180;-122.272;2023-04-25T18:55:00;6.4;5.6;
49686;PMS5003;36064;38.180;-122.272;2023-04-25T19:00:00;9.4;7.8;
49686;PMS5003;36064;38.180;-122.272;2023-04-25T19:05:00;6.0;4.2;
49686;PMS5003;36064;38.180;-122.272;2023-04-25T19:10:02;6.4;4.4;
49686;PMS5003;36064;38.180;-122.272;2023-04-25T19:15:00;6.0;5.0;
49686;PMS5003;36064;38.180;-122.272;2023-04-25T19:20:00;8.2;7.8;
49686;PMS5003;36064;38.180;-122.272;2023-04-25T19:25:00;5.2;4.2;
49686;PMS5003;36064;38.180;-122.272;2023-04-25T19:30:00;5.0;4.2;
49686;PMS5003;36064;38.180;-122.272;2023-04-25T19:35:00;5.2;4.8;
49686;PMS5003;36064;38.180;-122.272;2023-04-25T19:40:00;6.6;5.0;
49686;PMS5003;36064;38.180;-122.272;2023-04-25T19:45:00;7.0;4.8;
49686;PMS5003;36064;38.180;-122.272;2023-04-25T19:50:00;5.8;4.8;
49686;PMS5003;36064;38.180;-122.272;2023-04-25T19:55:00;8.4;4.6;
49686;PMS5003;36064;38.180;-122.272;2023-04-25T20:00:01;4.4;4.6;
49686;PMS5003;36064;38.180;-122.272;2023-04-25T20:05:00;4.2;3.0;
49686;PMS5003;36064;38.180;-122.272;2023-04-25T20:10:00;6.4;6.4;
49686;PMS5003;36064;38.180;-122.272;2023-04-25T20:15:00;5.6;4.4;
49686;PMS5003;36064;38.180;-122.272;2023-04-25T20:20:00;6.4;4.4;
49686;PMS5003;36064;38.180;-122.272;2023-04-25T20:25:01;5.6;4.8;
49686;PMS5003;36064;38.180;-122.272;2023-04-25T20:30:01;4.2;3.8;
49686;PMS5003;36064;38.180;-122.272;2023-04-25T20:35:00;4.8;3.6;
49686;PMS5003;36064;38.180;-122.272;2023-04-25T20:40:01;5.2;4.4;
49686;PMS5003;36064;38.180;-122.272;2023-04-25T20:45:01;4.2;2.8;
49686;PMS5003;36064;38.180;-122.272;2023-04-25T20:50:00;5.6;3.6;
49686;PMS5003;36064;38.180;-122.272;2023-04-25T20:55:00;4.8;5.6;
49686;PMS5003;36064;38.180;-122.272;2023-04-25T21:00:00;7.4;3.8;
49686;PMS5003;36064;38.180;-122.272;2023-04-25T21:05:00;3.6;2.0;
49686;PMS5003;36064;38.180;-122.272;2023-04-25T21:10:02;4.0;3.4;
49686;PMS5003;36064;38.180;-122.272;2023-04-25T21:15:01;3.2;3.4;
49686;PMS5003;36064;38.180;-122.272;2023-04-25T21:20:00;3.21;2.41;
49686;PMS5003;36064;38.180;-122.272;2023-04-25T21:25:00;4.2;3.0;
49686;PMS5003;36064;38.180;-122.272;2023-04-25T21:30:00;3.8;3.4;
49686;PMS5003;36064;38.180;-122.272;2023-04-25T21:35:00;4.86;3.63;
49686;PMS5003;36064;38.180;-122.272;2023-04-25T21:40:00;6.41;5.39;
49686;PMS5003;36064;38.180;-122.272;2023-04-25T21:45:00;4.2;2.4;
49686;PMS5003;36064;38.180;-122.272;2023-04-25T21:50:00;2.6;2.2;
49686;PMS5003;36064;38.180;-122.272;2023-04-25T21:55:00;2.6;3.0;
49686;PMS5003;36064;38.180;-122.272;2023-04-25T22:00:00;2.59;2.19;
49686;PMS5003;36064;38.180;-122.272;2023-04-25T22:05:00;4.2;2.2;
49686;PMS5003;36064;38.180;-122.272;2023-04-25T22:10:00;3.0;2.4;
49686;PMS5003;36064;38.180;-122.272;2023-04-25T22:15:00;4.6;3.2;
49686;PMS5003;36064;38.180;-122.272;2023-04-25T22:20:00;5.0;4.0;
49686;PMS5003;36064;38.180;-122.272;2023-04-25T22:25:00;4.4;3.8;
49686;PMS5003;36064;38.180;-122.272;2023-04-25T22:30:00;3.4;2.0;
49686;PMS5003;36064;38.180;-122.272;2023-04-25T22:35:00;3.0;2.6;
49686;PMS5003;36064;38.180;-122.272;2023-04-25T22:40:00;3.21;3.21;
49686;PMS5003;36064;38.180;-122.272;2023-04-25T22:45:00;4.6;3.0;
49686;PMS5003;36064;38.180;-122.272;2023-04-25T22:50:00;2.8;2.8;
49686;PMS5003;36064;38.180;-122.272;2023-04-25T22:55:00;4.15;2.96;
49686;PMS5003;36064;38.180;-122.272;2023-04-25T23:00:01;2.79;1.79;
49686;PMS5003;36064;38.180;-122.272;2023-04-25T23:05:00;5.2;3.6;
49686;PMS5003;36064;38.180;-122.272;2023-04-25T23:10:00;3.2;2.4;
49686;PMS5003;36064;38.180;-122.272;2023-04-25T23:15:00;6.0;4.8;
49686;PMS5003;36064;38.180;-122.272;2023-04-25T23:20:00;6.2;5.0;
49686;PMS5003;36064;38.180;-122.272;2023-04-25T23:25:00;6.2;3.8;
49686;PMS5003;36064;38.180;-122.272;2023-04-25T23:30:00;4.8;4.2;
49686;PMS5003;36064;38.180;-122.272;2023-04-25T23:35:00;5.0;3.4;
49686;PMS5003;36064;38.180;-122.272;2023-04-25T23:40:00;3.0;2.2;
49686;PMS5003;36064;38.180;-122.272;2023-04-25T23:45:00;3.8;3.0;
49686;PMS5003;36064;38.180;-122.272;2023-04-25T23:50:00;4.0;3.6;
49686;PMS5003;36064;38.180;-122.272;2023-04-25T23:55:00;4.0;4.0;
